Excelsior Bay — V7BQ4 — position and weather

sailwx.info

Track history (hours):
 
Tides and Currents Weather Stations Pressure Air Temp Water Temp Dewpoint Dewpoint Depression Visibility Wind Speed Wind Dir Waves Ship Positions

Excelsior Bay

Last reported at 2018-Jul-11 07:44 UTC. Time now 2018-Jul-20 10:44 UTC.
Position S 32°49' E 152°48'.
Warning: this ship's position is 9 days out of date.

Length 183 m; draft 8 m.

Type: Tanker. MMSI: 538005186.

Date/timePositionNaut miles runAvg speedWind from/ knotsBaromVisibWave heightAir tempDewpointWater temp
2018-Jul-11 07:44S 32°49' E 152°48'614.2
2018-Jul-11 07:19S 32°53' E 152°43'814.5
2018-Jul-11 06:48S 32°58' E 152°37'514.5
2018-Jul-11 06:29S 33°02' E 152°33'714.8
2018-Jul-11 06:00S 33°07' E 152°27'714.6
2018-Jul-11 05:30S 33°12' E 152°21'4813.8
2018-Jul-11 02:04S 33°47' E 151°42'111.5
2018-Jul-11 02:00S 33°47' E 151°41'611.5
2018-Jul-11 01:30S 33°51' E 151°37'611.4
2018-Jul-11 01:00S 33°55' E 151°32'611.2
2018-Jul-11 00:30S 33°58' E 151°26'611.5
2018-Jul-11 00:00S 33°60' E 151°19'4 0.1
2018-Jul-09 12:20S 34°01' E 151°15'2 7.3
2018-Jul-09 12:00S 34°01' E 151°18'5 9.7
2018-Jul-09 11:30S 34°01' E 151°24'5 9.3
2018-Jul-09 11:00S 34°00' E 151°29'2 4.2
2018-Jul-09 10:30S 34°01' E 151°32'2 3.4
2018-Jul-09 10:00S 34°01' E 151°34'2 4.7
2018-Jul-09 09:30S 34°03' E 151°35'2 5.0
2018-Jul-09 09:00S 34°06' E 151°36'3 5.3
2018-Jul-09 08:30S 34°08' E 151°37'1 2.2
2018-Jul-09 08:00S 34°09' E 151°38'1 2.3
2018-Jul-09 07:30S 34°08' E 151°39'1 2.5
2018-Jul-09 07:00S 34°06' E 151°39'1 2.2
2018-Jul-09 06:30S 34°05' E 151°40'1 2.5
2018-Jul-09 06:00S 34°04' E 151°41'1 2.0
2018-Jul-09 05:30S 34°03' E 151°41'1 2.0
2018-Jul-09 05:00S 34°03' E 151°41'1 1.9
2018-Jul-09 04:30S 34°02' E 151°42'1 1.5
2018-Jul-09 03:59S 34°01' E 151°43'1 2.1
2018-Jul-09 03:30S 34°00' E 151°43'1 1.9
2018-Jul-09 03:00S 33°59' E 151°43'0 0.7
2018-Jul-09 02:23S 33°59' E 151°44'1 1.7
2018-Jul-09 02:00S 33°59' E 151°45'5 7.6
2018-Jul-09 01:19S 33°56' E 151°50'2 0.7
2018-Jul-08 22:54S 33°58' E 151°50'1 1.5
2018-Jul-08 22:30S 33°57' E 151°49'1 2.6
2018-Jul-08 22:00S 33°56' E 151°49'1 0.9
2018-Jul-08 21:07S 33°55' E 151°50'0 0.8
2018-Jul-08 20:58S 33°55' E 151°50'0 0.5
2018-Jul-08 20:30S 33°55' E 151°49'0 0.8
2018-Jul-08 20:00S 33°56' E 151°50'0 0.8
2018-Jul-08 19:30S 33°56' E 151°49'0 0.9
2018-Jul-08 19:00S 33°56' E 151°49'0 0.9
2018-Jul-08 18:30S 33°57' E 151°49'0 0.9
2018-Jul-08 18:00S 33°57' E 151°49'0 0.9
2018-Jul-08 17:30S 33°58' E 151°49'0 0.9
2018-Jul-08 17:00S 33°58' E 151°49'0 0.9
2018-Jul-08 16:30S 33°58' E 151°49'0 0.9
2018-Jul-08 16:00S 33°59' E 151°48'0 0.8
2018-Jul-08 15:30S 33°59' E 151°48'0 0.8
2018-Jul-08 15:00S 33°59' E 151°48'0 0.8
2018-Jul-08 14:30S 33°60' E 151°48'0 0.8
2018-Jul-08 14:00S 34°00' E 151°47'0 0.8
2018-Jul-08 13:30S 34°00' E 151°47'0 0.8
2018-Jul-08 13:00S 34°01' E 151°46'0 0.9
2018-Jul-08 12:30S 34°01' E 151°46'0 0.7
2018-Jul-08 12:00S 34°01' E 151°46'0 0.8
2018-Jul-08 11:30S 34°01' E 151°45'0 0.8
2018-Jul-08 11:00S 34°01' E 151°45'0 0.8
2018-Jul-08 10:30S 34°02' E 151°44'0 0.7
2018-Jul-08 10:00S 34°02' E 151°44'0 0.6
2018-Jul-08 09:30S 34°02' E 151°44'0 0.8
2018-Jul-08 09:00S 34°02' E 151°43'0 0.7
2018-Jul-08 08:30S 34°01' E 151°43'0 0.9
2018-Jul-08 08:00S 34°01' E 151°42'0 0.9
2018-Jul-08 07:30S 34°01' E 151°42'1 1.0
2018-Jul-08 07:00S 34°01' E 151°41'0 1.0
2018-Jul-08 06:30S 34°01' E 151°41'0 0.9
2018-Jul-08 06:00S 34°00' E 151°40'0 0.7
2018-Jul-08 05:30S 34°00' E 151°40'1 1.6
2018-Jul-08 04:59S 33°60' E 151°39'0 0.7
2018-Jul-08 04:30S 33°60' E 151°39'0 0.0
2018-Jul-08 04:00S 33°60' E 151°39'0 0.1
2018-Jul-08 03:30S 33°60' E 151°39'0 0.1
2018-Jul-08 03:00S 33°60' E 151°39'0 0.4
2018-Jul-08 02:30S 33°60' E 151°39'1 1.8
2018-Jul-08 02:00S 33°60' E 151°40'0 0.1
2018-Jul-08 01:30S 33°60' E 151°40'0 0.3
2018-Jul-08 01:00S 33°60' E 151°41'0 0.2
2018-Jul-08 00:30S 34°00' E 151°41'0 0.2
2018-Jul-08 00:00S 34°00' E 151°41'0 0.1
2018-Jul-07 23:30S 34°00' E 151°41'0 0.1
2018-Jul-07 23:00S 34°00' E 151°41'0 0.1
2018-Jul-07 22:30S 34°00' E 151°41'0 0.1
2018-Jul-07 22:00S 34°00' E 151°41'0 0.0
2018-Jul-07 21:30S 34°00' E 151°41'0 0.1
2018-Jul-07 21:00S 34°00' E 151°41'0 0.3
2018-Jul-07 20:30S 34°00' E 151°41'0 0.2
2018-Jul-07 20:00S 34°00' E 151°41'0 0.3
2018-Jul-07 19:30S 34°00' E 151°40'0 0.1
2018-Jul-07 19:00S 34°00' E 151°40'0 0.1
2018-Jul-07 18:29S 34°00' E 151°40'0 0.1
2018-Jul-07 18:00S 34°00' E 151°40'0 0.1
2018-Jul-07 17:30S 34°00' E 151°40'0 0.0
2018-Jul-07 17:00S 34°00' E 151°40'0 0.2
2018-Jul-07 16:30S 34°00' E 151°41'0 0.2
2018-Jul-07 16:00S 34°00' E 151°41'0 0.2
2018-Jul-07 15:30S 34°00' E 151°41'0 0.3
2018-Jul-07 15:00S 34°01' E 151°41'0 0.3
2018-Jul-07 14:30S 34°01' E 151°41'0 0.4
2018-Jul-07 14:00S 34°01' E 151°41'0 0.4
2018-Jul-07 13:30S 34°01' E 151°40'0 0.5
2018-Jul-07 13:00S 34°01' E 151°40'0 0.2
2018-Jul-07 12:30S 34°01' E 151°40'0 0.4
2018-Jul-07 12:00S 34°01' E 151°40'0 0.5
2018-Jul-07 11:30S 34°01' E 151°40'0 0.5
2018-Jul-07 10:59S 34°01' E 151°40'0 0.5
2018-Jul-07 10:30S 34°01' E 151°39'0 0.5
2018-Jul-07 10:00S 34°01' E 151°39'0 0.9
2018-Jul-07 09:30S 34°00' E 151°39'0 0.5
2018-Jul-07 09:00S 34°00' E 151°39'3 7.0
2018-Jul-07 08:30S 34°03' E 151°37'4 7.6
2018-Jul-07 08:00S 34°06' E 151°35'0 0.6
2018-Jul-07 07:30S 34°06' E 151°34'1 1.5
2018-Jul-07 07:00S 34°05' E 151°34'1 1.6
2018-Jul-07 06:29S 34°05' E 151°34'1 1.6
2018-Jul-07 06:00S 34°04' E 151°34'1 1.7
2018-Jul-07 05:30S 34°03' E 151°33'1 1.8
2018-Jul-07 05:00S 34°02' E 151°33'1 1.7
2018-Jul-07 04:30S 34°01' E 151°33'510.2
2018-Jul-07 04:00S 34°01' E 151°40'611.5
2018-Jul-07 03:30S 34°00' E 151°47'  
Track history (hours):
 
Tides and Currents Weather Stations Pressure Air Temp Water Temp Dewpoint Dewpoint Depression Visibility Wind Speed Wind Dir Waves Ship Positions

Excelsior Bay

Last reported at 2018-Jul-11 07:44 UTC. Time now 2018-Jul-20 10:44 UTC.
Position S 32°49' E 152°48'.
Warning: this ship's position is 9 days out of date.

Length 183 m; draft 8 m.

Type: Tanker. MMSI: 538005186.

Date/timePositionNaut miles runAvg speedWind from/ knotsBaromVisibWave heightAir tempDewpointWater temp
2018-Jul-11 07:44S 32°49' E 152°48'614.2
2018-Jul-11 07:19S 32°53' E 152°43'814.5
2018-Jul-11 06:48S 32°58' E 152°37'514.5
2018-Jul-11 06:29S 33°02' E 152°33'714.8
2018-Jul-11 06:00S 33°07' E 152°27'714.6
2018-Jul-11 05:30S 33°12' E 152°21'4813.8
2018-Jul-11 02:04S 33°47' E 151°42'111.5
2018-Jul-11 02:00S 33°47' E 151°41'611.5
2018-Jul-11 01:30S 33°51' E 151°37'611.4
2018-Jul-11 01:00S 33°55' E 151°32'611.2
2018-Jul-11 00:30S 33°58' E 151°26'611.5
2018-Jul-11 00:00S 33°60' E 151°19'4 0.1
2018-Jul-09 12:20S 34°01' E 151°15'2 7.3
2018-Jul-09 12:00S 34°01' E 151°18'5 9.7
2018-Jul-09 11:30S 34°01' E 151°24'5 9.3
2018-Jul-09 11:00S 34°00' E 151°29'2 4.2
2018-Jul-09 10:30S 34°01' E 151°32'2 3.4
2018-Jul-09 10:00S 34°01' E 151°34'2 4.7
2018-Jul-09 09:30S 34°03' E 151°35'2 5.0
2018-Jul-09 09:00S 34°06' E 151°36'3 5.3
2018-Jul-09 08:30S 34°08' E 151°37'1 2.2
2018-Jul-09 08:00S 34°09' E 151°38'1 2.3
2018-Jul-09 07:30S 34°08' E 151°39'1 2.5
2018-Jul-09 07:00S 34°06' E 151°39'1 2.2
2018-Jul-09 06:30S 34°05' E 151°40'1 2.5
2018-Jul-09 06:00S 34°04' E 151°41'1 2.0
2018-Jul-09 05:30S 34°03' E 151°41'1 2.0
2018-Jul-09 05:00S 34°03' E 151°41'1 1.9
2018-Jul-09 04:30S 34°02' E 151°42'1 1.5
2018-Jul-09 03:59S 34°01' E 151°43'1 2.1
2018-Jul-09 03:30S 34°00' E 151°43'1 1.9
2018-Jul-09 03:00S 33°59' E 151°43'0 0.7
2018-Jul-09 02:23S 33°59' E 151°44'1 1.7
2018-Jul-09 02:00S 33°59' E 151°45'5 7.6
2018-Jul-09 01:19S 33°56' E 151°50'2 0.7
2018-Jul-08 22:54S 33°58' E 151°50'1 1.5
2018-Jul-08 22:30S 33°57' E 151°49'1 2.6
2018-Jul-08 22:00S 33°56' E 151°49'1 0.9
2018-Jul-08 21:07S 33°55' E 151°50'0 0.8
2018-Jul-08 20:58S 33°55' E 151°50'0 0.5
2018-Jul-08 20:30S 33°55' E 151°49'0 0.8
2018-Jul-08 20:00S 33°56' E 151°50'0 0.8
2018-Jul-08 19:30S 33°56' E 151°49'0 0.9
2018-Jul-08 19:00S 33°56' E 151°49'0 0.9
2018-Jul-08 18:30S 33°57' E 151°49'0 0.9
2018-Jul-08 18:00S 33°57' E 151°49'0 0.9
2018-Jul-08 17:30S 33°58' E 151°49'0 0.9
2018-Jul-08 17:00S 33°58' E 151°49'0 0.9
2018-Jul-08 16:30S 33°58' E 151°49'0 0.9
2018-Jul-08 16:00S 33°59' E 151°48'0 0.8
2018-Jul-08 15:30S 33°59' E 151°48'0 0.8
2018-Jul-08 15:00S 33°59' E 151°48'0 0.8
2018-Jul-08 14:30S 33°60' E 151°48'0 0.8
2018-Jul-08 14:00S 34°00' E 151°47'0 0.8
2018-Jul-08 13:30S 34°00' E 151°47'0 0.8
2018-Jul-08 13:00S 34°01' E 151°46'0 0.9
2018-Jul-08 12:30S 34°01' E 151°46'0 0.7
2018-Jul-08 12:00S 34°01' E 151°46'0 0.8
2018-Jul-08 11:30S 34°01' E 151°45'0 0.8
2018-Jul-08 11:00S 34°01' E 151°45'0 0.8
2018-Jul-08 10:30S 34°02' E 151°44'0 0.7
2018-Jul-08 10:00S 34°02' E 151°44'0 0.6
2018-Jul-08 09:30S 34°02' E 151°44'0 0.8
2018-Jul-08 09:00S 34°02' E 151°43'0 0.7
2018-Jul-08 08:30S 34°01' E 151°43'0 0.9
2018-Jul-08 08:00S 34°01' E 151°42'0 0.9
2018-Jul-08 07:30S 34°01' E 151°42'1 1.0
2018-Jul-08 07:00S 34°01' E 151°41'0 1.0
2018-Jul-08 06:30S 34°01' E 151°41'0 0.9
2018-Jul-08 06:00S 34°00' E 151°40'0 0.7
2018-Jul-08 05:30S 34°00' E 151°40'1 1.6
2018-Jul-08 04:59S 33°60' E 151°39'0 0.7
2018-Jul-08 04:30S 33°60' E 151°39'0 0.0
2018-Jul-08 04:00S 33°60' E 151°39'0 0.1
2018-Jul-08 03:30S 33°60' E 151°39'0 0.1
2018-Jul-08 03:00S 33°60' E 151°39'0 0.4
2018-Jul-08 02:30S 33°60' E 151°39'1 1.8
2018-Jul-08 02:00S 33°60' E 151°40'0 0.1
2018-Jul-08 01:30S 33°60' E 151°40'0 0.3
2018-Jul-08 01:00S 33°60' E 151°41'0 0.2
2018-Jul-08 00:30S 34°00' E 151°41'0 0.2
2018-Jul-08 00:00S 34°00' E 151°41'0 0.1
2018-Jul-07 23:30S 34°00' E 151°41'0 0.1
2018-Jul-07 23:00S 34°00' E 151°41'0 0.1
2018-Jul-07 22:30S 34°00' E 151°41'0 0.1
2018-Jul-07 22:00S 34°00' E 151°41'0 0.0
2018-Jul-07 21:30S 34°00' E 151°41'0 0.1
2018-Jul-07 21:00S 34°00' E 151°41'0 0.3
2018-Jul-07 20:30S 34°00' E 151°41'0 0.2
2018-Jul-07 20:00S 34°00' E 151°41'0 0.3
2018-Jul-07 19:30S 34°00' E 151°40'0 0.1
2018-Jul-07 19:00S 34°00' E 151°40'0 0.1
2018-Jul-07 18:29S 34°00' E 151°40'0 0.1
2018-Jul-07 18:00S 34°00' E 151°40'0 0.1
2018-Jul-07 17:30S 34°00' E 151°40'0 0.0
2018-Jul-07 17:00S 34°00' E 151°40'0 0.2
2018-Jul-07 16:30S 34°00' E 151°41'0 0.2
2018-Jul-07 16:00S 34°00' E 151°41'0 0.2
2018-Jul-07 15:30S 34°00' E 151°41'0 0.3
2018-Jul-07 15:00S 34°01' E 151°41'0 0.3
2018-Jul-07 14:30S 34°01' E 151°41'0 0.4
2018-Jul-07 14:00S 34°01' E 151°41'0 0.4
2018-Jul-07 13:30S 34°01' E 151°40'0 0.5
2018-Jul-07 13:00S 34°01' E 151°40'0 0.2
2018-Jul-07 12:30S 34°01' E 151°40'0 0.4
2018-Jul-07 12:00S 34°01' E 151°40'0 0.5
2018-Jul-07 11:30S 34°01' E 151°40'0 0.5
2018-Jul-07 10:59S 34°01' E 151°40'0 0.5
2018-Jul-07 10:30S 34°01' E 151°39'0 0.5
2018-Jul-07 10:00S 34°01' E 151°39'0 0.9
2018-Jul-07 09:30S 34°00' E 151°39'0 0.5
2018-Jul-07 09:00S 34°00' E 151°39'3 7.0
2018-Jul-07 08:30S 34°03' E 151°37'4 7.6
2018-Jul-07 08:00S 34°06' E 151°35'0 0.6
2018-Jul-07 07:30S 34°06' E 151°34'1 1.5
2018-Jul-07 07:00S 34°05' E 151°34'1 1.6
2018-Jul-07 06:29S 34°05' E 151°34'1 1.6
2018-Jul-07 06:00S 34°04' E 151°34'1 1.7
2018-Jul-07 05:30S 34°03' E 151°33'1 1.8
2018-Jul-07 05:00S 34°02' E 151°33'1 1.7
2018-Jul-07 04:30S 34°01' E 151°33'510.2
2018-Jul-07 04:00S 34°01' E 151°40'611.5
2018-Jul-07 03:30S 34°00' E 151°47'  

Dump ship's entire track history